Time;durP1;ratioP1;P1;durP2;ratioP2;P2;SDS_P1;SDS_P2;PMS_P1;PMS_P2;Temp;Humidity;BMP_temperature;BMP_pressure;BME280_temperature;BME280_humidity;BME280_pressure;Samples;Min_cycle;Max_cycle;Signal;HPM_P1;HPM_P2
2022/02/18 00:02:14;;;;;;;0.33;0.10;;;;;;;;;;1804559;79;26763;-44
2022/02/18 00:04:42;;;;;;;0.10;0.10;;;;;;;;;;1803568;79;26739;-46
2022/02/18 00:07:09;;;;;;;1.05;0.10;;;;;;;;;;1805256;79;26573;-44
2022/02/18 00:09:36;;;;;;;0.25;0.20;;;;;;;;;;1796428;78;28405;-44
2022/02/18 00:12:04;;;;;;;0.82;0.25;;;;;;;;;;1803714;79;26338;-43
2022/02/18 00:14:32;;;;;;;3.12;0.30;;;;;;;;;;1803695;79;26369;-42
2022/02/18 00:16:59;;;;;;;0.30;0.10;;;;;;;;;;1805522;79;26243;-42
2022/02/18 00:19:27;;;;;;;0.10;0.10;;;;;;;;;;1805037;79;26299;-42
2022/02/18 00:21:54;;;;;;;0.20;0.20;;;;;;;;;;1804834;79;26734;-42
2022/02/18 00:24:21;;;;;;;0.55;0.20;;;;;;;;;;1805284;79;26672;-44
2022/02/18 00:26:49;;;;;;;1.65;0.23;;;;;;;;;;1811987;79;26325;-44
2022/02/18 00:29:16;;;;;;;1.27;0.10;;;;;;;;;;1810216;79;26749;-42
2022/02/18 00:31:43;;;;;;;0.10;0.10;;;;;;;;;;1814681;79;26342;-44
2022/02/18 00:34:11;;;;;;;0.30;0.30;;;;;;;;;;1814326;79;26298;-44
2022/02/18 00:36:38;;;;;;;0.10;0.10;;;;;;;;;;1810382;79;26779;-42
2022/02/18 00:39:05;;;;;;;0.15;0.15;;;;;;;;;;1808121;79;26686;-43
2022/02/18 00:41:33;;;;;;;1.07;0.13;;;;;;;;;;1805509;79;26364;-45
2022/02/18 00:44:00;;;;;;;0.10;0.10;;;;;;;;;;1813665;79;26307;-41
2022/02/18 00:46:29;;;;;;;0.10;0.10;;;;;;;;;;1814091;79;26270;-44
2022/02/18 00:48:57;;;;;;;0.28;0.10;;;;;;;;;;1814654;78;26240;-42
2022/02/18 00:51:24;;;;;;;0.05;0.00;;;;;;;;;;1812137;79;27427;-42
2022/02/18 00:53:51;;;;;;;0.10;0.10;;;;;;;;;;1813725;79;26271;-43
2022/02/18 00:56:19;;;;;;;0.03;0.03;;;;;;;;;;1813273;79;26337;-41
2022/02/18 00:58:46;;;;;;;0.10;0.10;;;;;;;;;;1813442;79;26400;-43
2022/02/18 01:01:13;;;;;;;0.10;0.10;;;;;;;;;;1811962;79;26848;-43
2022/02/18 01:03:40;;;;;;;0.10;0.10;;;;;;;;;;1811663;79;26753;-44
2022/02/18 01:06:08;;;;;;;0.10;0.10;;;;;;;;;;1810874;79;27517;-42
2022/02/18 01:08:35;;;;;;;0.15;0.00;;;;;;;;;;1814022;79;26290;-43
2022/02/18 01:11:02;;;;;;;0.28;0.28;;;;;;;;;;1813491;79;26263;-44
2022/02/18 01:13:30;;;;;;;0.10;0.10;;;;;;;;;;1811433;79;26348;-41
2022/02/18 01:15:57;;;;;;;0.10;0.10;;;;;;;;;;1814008;79;26286;-41
2022/02/18 01:18:24;;;;;;;0.00;0.00;;;;;;;;;;1810428;79;26336;-44
2022/02/18 01:20:52;;;;;;;0.10;0.10;;;;;;;;;;1810106;79;26336;-42
2022/02/18 01:23:19;;;;;;;0.10;0.10;;;;;;;;;;1814057;78;26310;-41
2022/02/18 01:25:47;;;;;;;0.57;0.13;;;;;;;;;;1813898;78;26342;-42
2022/02/18 01:28:14;;;;;;;0.15;0.15;;;;;;;;;;1824413;78;26269;-41
2022/02/18 01:30:41;;;;;;;0.10;0.10;;;;;;;;;;1829240;78;26657;-42
2022/02/18 01:33:08;;;;;;;0.10;0.10;;;;;;;;;;1828082;78;26738;-41
2022/02/18 01:35:36;;;;;;;0.23;0.20;;;;;;;;;;1826851;78;26357;-45
2022/02/18 01:38:05;;;;;;;0.95;0.20;;;;;;;;;;1825814;78;26363;-42
2022/02/18 01:40:33;;;;;;;0.10;0.10;;;;;;;;;;1827271;78;26307;-42
2022/02/18 01:43:00;;;;;;;0.10;0.10;;;;;;;;;;1828667;78;26772;-44
2022/02/18 01:45:28;;;;;;;0.20;0.20;;;;;;;;;;1828425;78;26912;-41
2022/02/18 01:47:56;;;;;;;0.00;0.00;;;;;;;;;;1824997;78;26297;-43
2022/02/18 01:50:23;;;;;;;0.10;0.10;;;;;;;;;;1827202;78;26360;-43
2022/02/18 01:52:52;;;;;;;0.10;0.10;;;;;;;;;;1828867;78;26218;-42
2022/02/18 01:55:20;;;;;;;0.20;0.20;;;;;;;;;;1828999;78;26301;-42
2022/02/18 01:57:48;;;;;;;0.20;0.20;;;;;;;;;;1827542;78;26121;-44
2022/02/18 02:00:17;;;;;;;0.10;0.10;;;;;;;;;;1828171;78;26355;-43
2022/02/18 02:02:45;;;;;;;0.10;0.10;;;;;;;;;;1829258;78;26336;-42
2022/02/18 02:05:13;;;;;;;0.10;0.10;;;;;;;;;;1821032;78;25667;-43
2022/02/18 02:07:42;;;;;;;0.03;0.03;;;;;;;;;;1828728;78;26313;-44
2022/02/18 02:10:11;;;;;;;0.10;0.10;;;;;;;;;;1821545;78;26388;-42
2022/02/18 02:12:40;;;;;;;0.20;0.20;;;;;;;;;;1827291;78;26415;-41
2022/02/18 02:15:08;;;;;;;0.10;0.10;;;;;;;;;;1827228;78;26214;-43
2022/02/18 02:17:35;;;;;;;0.10;0.10;;;;;;;;;;1824438;78;26270;-42
2022/02/18 02:20:04;;;;;;;0.10;0.10;;;;;;;;;;1827097;78;26285;-43
2022/02/18 02:22:31;;;;;;;0.10;0.10;;;;;;;;;;1828148;77;26297;-44
2022/02/18 02:25:00;;;;;;;0.10;0.10;;;;;;;;;;1829400;78;26273;-43
2022/02/18 02:27:27;;;;;;;0.10;0.10;;;;;;;;;;1815603;78;26384;-42
2022/02/18 02:29:54;;;;;;;0.10;0.10;;;;;;;;;;1803105;79;26294;-42
2022/02/18 02:32:22;;;;;;;0.20;0.20;;;;;;;;;;1804462;79;26271;-44
2022/02/18 02:34:49;;;;;;;0.10;0.10;;;;;;;;;;1804716;79;27014;-43
2022/02/18 02:37:17;;;;;;;0.10;0.10;;;;;;;;;;1804983;79;26306;-42
2022/02/18 02:39:44;;;;;;;1.07;0.10;;;;;;;;;;1804039;79;26295;-41
2022/02/18 02:42:12;;;;;;;0.10;0.10;;;;;;;;;;1805222;79;26364;-43
2022/02/18 02:44:39;;;;;;;0.10;0.10;;;;;;;;;;1805037;79;26369;-43
2022/02/18 02:47:06;;;;;;;0.10;0.10;;;;;;;;;;1805589;79;26217;-44
2022/02/18 02:49:34;;;;;;;0.10;0.10;;;;;;;;;;1803614;79;26684;-45
2022/02/18 02:52:01;;;;;;;0.10;0.10;;;;;;;;;;1804581;79;26373;-43
2022/02/18 02:54:28;;;;;;;0.10;0.10;;;;;;;;;;1805117;79;26326;-41
2022/02/18 02:56:56;;;;;;;0.20;0.10;;;;;;;;;;1805772;78;26377;-41
2022/02/18 02:59:24;;;;;;;0.13;0.05;;;;;;;;;;1802971;79;26691;-41
2022/02/18 03:01:52;;;;;;;0.10;0.10;;;;;;;;;;1805854;79;26283;-43
2022/02/18 03:04:19;;;;;;;0.08;0.08;;;;;;;;;;1791562;79;26289;-41
2022/02/18 03:06:47;;;;;;;0.10;0.10;;;;;;;;;;1805772;79;26349;-43
2022/02/18 03:09:14;;;;;;;0.10;0.10;;;;;;;;;;1791719;79;26768;-42
2022/02/18 03:11:41;;;;;;;0.10;0.10;;;;;;;;;;1790842;79;26239;-45
2022/02/18 03:14:09;;;;;;;0.23;0.10;;;;;;;;;;1803895;79;26212;-42
2022/02/18 03:16:36;;;;;;;0.10;0.10;;;;;;;;;;1806153;79;25506;-43
2022/02/18 03:19:03;;;;;;;3.22;0.20;;;;;;;;;;1802700;79;26282;-42
2022/02/18 03:21:31;;;;;;;0.20;0.17;;;;;;;;;;1802858;79;26267;-44
2022/02/18 03:23:58;;;;;;;0.40;0.20;;;;;;;;;;1800552;79;26207;-43
2022/02/18 03:26:25;;;;;;;0.10;0.10;;;;;;;;;;1805334;79;26275;-42
2022/02/18 03:28:53;;;;;;;0.10;0.10;;;;;;;;;;1827195;78;26301;-45
2022/02/18 03:31:20;;;;;;;0.10;0.10;;;;;;;;;;1829656;78;26739;-41
2022/02/18 03:33:48;;;;;;;0.10;0.10;;;;;;;;;;1815504;78;27539;-41
2022/02/18 03:36:15;;;;;;;0.30;0.30;;;;;;;;;;1829762;78;26293;-43
2022/02/18 03:38:42;;;;;;;0.20;0.20;;;;;;;;;;1822228;78;26342;-43
2022/02/18 03:41:09;;;;;;;0.20;0.20;;;;;;;;;;1829834;78;26254;-41
2022/02/18 03:43:37;;;;;;;0.10;0.10;;;;;;;;;;1828129;78;26287;-43
2022/02/18 03:46:04;;;;;;;0.20;0.20;;;;;;;;;;1829600;78;27596;-43
2022/02/18 03:48:32;;;;;;;0.10;0.10;;;;;;;;;;1829325;78;26285;-41
2022/02/18 03:51:00;;;;;;;0.20;0.20;;;;;;;;;;1829795;78;26312;-41
2022/02/18 03:53:27;;;;;;;0.15;0.15;;;;;;;;;;1829547;78;26321;-42
2022/02/18 03:55:54;;;;;;;0.28;0.28;;;;;;;;;;1823720;78;26401;-44
2022/02/18 03:58:22;;;;;;;0.20;0.20;;;;;;;;;;1776865;80;26692;-43
2022/02/18 04:00:49;;;;;;;0.25;0.25;;;;;;;;;;1804875;79;26758;-45
2022/02/18 04:03:16;;;;;;;0.20;0.20;;;;;;;;;;1811894;79;26762;-42
2022/02/18 04:05:44;;;;;;;0.13;0.13;;;;;;;;;;1808032;79;26211;-43
2022/02/18 04:08:11;;;;;;;0.13;0.13;;;;;;;;;;1812092;79;26423;-42
2022/02/18 04:10:39;;;;;;;0.10;0.10;;;;;;;;;;1811926;79;26770;-41
2022/02/18 04:13:06;;;;;;;0.10;0.10;;;;;;;;;;1811928;79;26360;-42
2022/02/18 04:15:33;;;;;;;0.20;0.20;;;;;;;;;;1811906;79;26270;-42
2022/02/18 04:18:01;;;;;;;0.17;0.17;;;;;;;;;;1811157;79;26373;-41
2022/02/18 04:20:28;;;;;;;0.17;0.17;;;;;;;;;;1812110;79;26275;-43
2022/02/18 04:22:56;;;;;;;0.20;0.20;;;;;;;;;;1804265;79;26258;-43
2022/02/18 04:25:23;;;;;;;0.20;0.20;;;;;;;;;;1811994;79;26730;-41
2022/02/18 04:27:54;;;;;;;0.23;0.23;;;;;;;;;;1808942;79;26322;-42
2022/02/18 04:30:22;;;;;;;0.20;0.20;;;;;;;;;;1794922;79;26348;-43
2022/02/18 04:32:50;;;;;;;0.20;0.20;;;;;;;;;;1791097;79;26290;-42
2022/02/18 04:35:18;;;;;;;1.20;0.20;;;;;;;;;;1812620;79;26257;-43
2022/02/18 04:37:46;;;;;;;0.20;0.20;;;;;;;;;;1795233;79;25711;-43
2022/02/18 04:40:14;;;;;;;0.10;0.10;;;;;;;;;;1792770;78;26327;-42
2022/02/18 04:42:41;;;;;;;0.10;0.10;;;;;;;;;;1779421;79;26877;-42
2022/02/18 04:45:09;;;;;;;0.10;0.10;;;;;;;;;;1831930;77;26220;-42
2022/02/18 04:47:36;;;;;;;0.10;0.10;;;;;;;;;;1836527;77;26355;-41
2022/02/18 04:50:05;;;;;;;0.20;0.20;;;;;;;;;;1838640;77;26253;-41
2022/02/18 04:52:36;;;;;;;0.28;0.10;;;;;;;;;;1841767;77;26759;-42
2022/02/18 04:55:02;;;;;;;0.20;0.20;;;;;;;;;;1847097;76;26675;-43
2022/02/18 04:57:29;;;;;;;0.23;0.20;;;;;;;;;;1839713;77;26263;-41
2022/02/18 04:59:56;;;;;;;0.10;0.10;;;;;;;;;;1834110;77;26254;-42
2022/02/18 05:02:23;;;;;;;0.20;0.20;;;;;;;;;;1842002;77;26286;-42
2022/02/18 05:04:51;;;;;;;0.20;0.20;;;;;;;;;;1834950;77;26337;-41
2022/02/18 05:07:19;;;;;;;0.20;0.20;;;;;;;;;;1838197;77;26314;-41
2022/02/18 05:09:46;;;;;;;0.20;0.20;;;;;;;;;;1847155;77;26356;-43
2022/02/18 05:12:13;;;;;;;0.17;0.17;;;;;;;;;;1846367;77;26274;-42
2022/02/18 05:14:41;;;;;;;0.10;0.10;;;;;;;;;;1843938;77;26238;-43
2022/02/18 05:17:08;;;;;;;0.20;0.20;;;;;;;;;;1838672;77;26247;-43
2022/02/18 05:19:35;;;;;;;0.20;0.20;;;;;;;;;;1848606;77;26801;-42
2022/02/18 05:22:02;;;;;;;0.33;0.30;;;;;;;;;;1845795;76;26803;-41
2022/02/18 05:24:30;;;;;;;0.20;0.20;;;;;;;;;;1845708;77;26266;-42
2022/02/18 05:26:57;;;;;;;0.40;0.40;;;;;;;;;;1839617;77;26184;-43
2022/02/18 05:29:24;;;;;;;0.30;0.30;;;;;;;;;;1847606;76;26307;-44
2022/02/18 05:31:51;;;;;;;0.20;0.20;;;;;;;;;;1842187;77;26332;-42
2022/02/18 05:34:19;;;;;;;0.20;0.20;;;;;;;;;;1843888;77;26259;-42
2022/02/18 05:36:46;;;;;;;0.20;0.20;;;;;;;;;;1849266;77;26336;-45
2022/02/18 05:39:13;;;;;;;0.28;0.28;;;;;;;;;;1841765;77;26289;-44
2022/02/18 05:41:41;;;;;;;0.13;0.13;;;;;;;;;;1835227;77;26280;-41
2022/02/18 05:44:08;;;;;;;0.35;0.20;;;;;;;;;;1847289;77;26195;-42
2022/02/18 05:46:35;;;;;;;0.30;0.30;;;;;;;;;;1842012;77;26259;-42
2022/02/18 05:49:02;;;;;;;0.35;0.35;;;;;;;;;;1842789;77;26204;-42
2022/02/18 05:51:30;;;;;;;0.28;0.28;;;;;;;;;;1849054;77;26824;-42
2022/02/18 05:53:57;;;;;;;0.23;0.23;;;;;;;;;;1847848;77;26203;-41
2022/02/18 05:56:24;;;;;;;0.15;0.15;;;;;;;;;;1849108;77;26374;-44
2022/02/18 05:58:51;;;;;;;0.30;0.30;;;;;;;;;;1840778;77;26180;-41
2022/02/18 06:01:20;;;;;;;0.20;0.20;;;;;;;;;;1848203;77;26297;-41
2022/02/18 06:03:48;;;;;;;0.20;0.20;;;;;;;;;;1849071;77;26250;-42
2022/02/18 06:06:17;;;;;;;0.65;0.30;;;;;;;;;;1848989;77;26279;-45
2022/02/18 06:08:44;;;;;;;0.47;0.40;;;;;;;;;;1849350;77;26258;-42
2022/02/18 06:11:11;;;;;;;0.17;0.17;;;;;;;;;;1833286;77;26316;-43
2022/02/18 06:13:38;;;;;;;0.25;0.25;;;;;;;;;;1848427;77;26251;-43
2022/02/18 06:16:06;;;;;;;0.20;0.20;;;;;;;;;;1841094;77;26332;-42
2022/02/18 06:18:33;;;;;;;0.40;0.40;;;;;;;;;;1843199;77;26245;-41
2022/02/18 06:21:00;;;;;;;0.20;0.20;;;;;;;;;;1846647;77;26318;-43
2022/02/18 06:23:27;;;;;;;1.00;0.30;;;;;;;;;;1847148;77;26356;-44
2022/02/18 06:25:55;;;;;;;0.30;0.30;;;;;;;;;;1848319;77;26247;-45
2022/02/18 06:28:22;;;;;;;0.20;0.20;;;;;;;;;;1849590;77;26341;-43
2022/02/18 06:30:49;;;;;;;0.20;0.20;;;;;;;;;;1856308;77;26768;-42
2022/02/18 06:33:16;;;;;;;0.23;0.23;;;;;;;;;;1843458;76;26777;-43
2022/02/18 06:35:44;;;;;;;0.33;0.33;;;;;;;;;;1857822;77;26312;-42
2022/02/18 06:38:12;;;;;;;2.22;0.30;;;;;;;;;;1857369;77;26895;-43
2022/02/18 06:40:39;;;;;;;0.20;0.20;;;;;;;;;;1857612;77;26262;-42
2022/02/18 06:43:07;;;;;;;0.30;0.30;;;;;;;;;;1857674;77;25975;-44
2022/02/18 06:45:35;;;;;;;1.65;0.30;;;;;;;;;;1855043;76;26270;-48
2022/02/18 06:48:02;;;;;;;3.40;0.60;;;;;;;;;;1855685;77;26203;-42
2022/02/18 06:50:29;;;;;;;2.92;0.40;;;;;;;;;;1856470;76;26262;-44
2022/02/18 06:52:57;;;;;;;3.70;0.40;;;;;;;;;;1858595;76;26638;-44
2022/02/18 06:55:24;;;;;;;1.52;0.40;;;;;;;;;;1857543;76;26379;-43
2022/02/18 06:57:53;;;;;;;1.00;0.50;;;;;;;;;;1857492;77;26266;-43
2022/02/18 07:00:21;;;;;;;0.90;0.50;;;;;;;;;;1857148;76;26353;-45
2022/02/18 07:02:48;;;;;;;3.42;0.70;;;;;;;;;;1856400;76;26274;-44
2022/02/18 07:05:16;;;;;;;1.10;1.00;;;;;;;;;;1857848;76;26301;-44
2022/02/18 07:07:44;;;;;;;5.10;1.65;;;;;;;;;;1859702;76;26326;-43
2022/02/18 07:10:13;;;;;;;10.55;2.42;;;;;;;;;;1850654;77;27197;-45
2022/02/18 07:12:40;;;;;;;14.13;2.35;;;;;;;;;;1854993;76;26309;-45
2022/02/18 07:15:09;;;;;;;8.75;2.02;;;;;;;;;;1856377;77;26620;-47
2022/02/18 07:17:36;;;;;;;11.90;2.83;;;;;;;;;;1843971;77;28051;-48
2022/02/18 07:20:04;;;;;;;7.22;2.47;;;;;;;;;;1833127;77;26263;-52
2022/02/18 07:22:33;;;;;;;6.22;2.27;;;;;;;;;;1852519;77;26734;-50
2022/02/18 07:25:01;;;;;;;4.97;2.00;;;;;;;;;;1848443;76;26800;-55
2022/02/18 07:27:28;;;;;;;8.23;2.95;;;;;;;;;;1857350;77;26294;-46
2022/02/18 07:29:55;;;;;;;8.60;2.00;;;;;;;;;;1852591;76;26761;-51
2022/02/18 07:32:24;;;;;;;9.60;2.10;;;;;;;;;;1840936;77;26918;-49
2022/02/18 07:34:52;;;;;;;9.13;2.30;;;;;;;;;;1849359;77;26317;-54
2022/02/18 07:37:19;;;;;;;10.72;2.02;;;;;;;;;;1838296;77;26337;-47
2022/02/18 07:39:46;;;;;;;6.12;1.80;;;;;;;;;;1847159;77;26274;-57
2022/02/18 07:42:14;;;;;;;3.90;2.00;;;;;;;;;;1848904;77;26246;-53
2022/02/18 07:44:42;;;;;;;4.70;1.70;;;;;;;;;;1849202;77;26797;-54
2022/02/18 07:47:10;;;;;;;3.67;2.00;;;;;;;;;;1845914;77;26262;-65
2022/02/18 07:49:37;;;;;;;5.72;2.10;;;;;;;;;;1842205;77;26352;-48
2022/02/18 07:52:05;;;;;;;9.90;1.75;;;;;;;;;;1850765;76;26250;-49
2022/02/18 07:54:32;;;;;;;5.12;1.60;;;;;;;;;;1845670;77;26267;-60
2022/02/18 07:56:59;;;;;;;4.55;1.80;;;;;;;;;;1841866;76;26354;-55
2022/02/18 07:59:27;;;;;;;5.78;1.70;;;;;;;;;;1845637;77;26268;-47
2022/02/18 08:01:54;;;;;;;2.98;1.50;;;;;;;;;;1845982;77;26274;-51
2022/02/18 08:04:21;;;;;;;7.22;1.50;;;;;;;;;;1846532;77;26699;-54
2022/02/18 08:06:49;;;;;;;4.12;1.50;;;;;;;;;;1843831;76;26243;-57
2022/02/18 08:09:16;;;;;;;3.80;1.40;;;;;;;;;;1867852;76;26260;-46
2022/02/18 08:11:43;;;;;;;4.05;1.40;;;;;;;;;;1847927;76;26758;-57
2022/02/18 08:14:11;;;;;;;3.58;1.52;;;;;;;;;;1847488;77;26258;-46
2022/02/18 08:16:38;;;;;;;2.00;1.37;;;;;;;;;;1848983;77;26246;-52
2022/02/18 08:19:11;;;;;;;4.87;1.30;;;;;;;;;;1848856;77;26344;-53
2022/02/18 08:21:34;;;;;;;3.70;1.40;;;;;;;;;;1846254;76;26311;-60
2022/02/18 08:24:02;;;;;;;2.12;1.07;;;;;;;;;;1849208;76;26283;-54
2022/02/18 08:26:32;;;;;;;4.12;1.15;;;;;;;;;;1848841;77;26282;-57
2022/02/18 08:28:59;;;;;;;2.15;1.07;;;;;;;;;;1847488;76;26295;-59
2022/02/18 08:31:26;;;;;;;1.75;1.30;;;;;;;;;;1849442;77;26383;-54
2022/02/18 08:33:54;;;;;;;2.85;1.75;;;;;;;;;;1856969;77;26331;-47
2022/02/18 08:36:21;;;;;;;3.08;1.10;;;;;;;;;;1844521;76;26770;-46
2022/02/18 08:38:48;;;;;;;3.80;1.25;;;;;;;;;;1850044;77;26273;-47
2022/02/18 08:41:15;;;;;;;2.58;1.10;;;;;;;;;;1857767;77;26285;-51
2022/02/18 08:43:43;;;;;;;2.58;1.22;;;;;;;;;;1857906;76;26742;-48
2022/02/18 08:46:10;;;;;;;3.15;1.20;;;;;;;;;;1854244;77;26639;-52
2022/02/18 08:48:37;;;;;;;1.00;1.00;;;;;;;;;;1851352;76;26710;-48
2022/02/18 08:51:04;;;;;;;2.85;1.20;;;;;;;;;;1857938;76;26226;-58
2022/02/18 08:53:32;;;;;;;1.10;0.70;;;;;;;;;;1856136;77;26339;-55
2022/02/18 08:55:59;;;;;;;3.40;0.88;;;;;;;;;;1852332;77;26618;-48
2022/02/18 08:58:28;;;;;;;2.20;1.00;;;;;;;;;;1857874;77;26207;-54
2022/02/18 09:00:56;;;;;;;7.17;0.82;;;;;;;;;;1848720;77;26749;-60
2022/02/18 09:03:23;;;;;;;0.90;0.90;;;;;;;;;;1853248;77;26258;-57
2022/02/18 09:05:51;;;;;;;0.93;0.90;;;;;;;;;;1855973;76;26841;-49
2022/02/18 09:08:21;;;;;;;1.00;0.88;;;;;;;;;;1857022;77;26761;-58
2022/02/18 09:10:49;;;;;;;0.60;0.60;;;;;;;;;;1857046;77;26251;-52
2022/02/18 09:13:16;;;;;;;0.88;0.80;;;;;;;;;;1854193;76;22884;-48
2022/02/18 09:15:43;;;;;;;1.85;0.90;;;;;;;;;;1851590;76;28023;-43
2022/02/18 09:18:10;;;;;;;0.90;0.85;;;;;;;;;;1842387;77;26324;-52
2022/02/18 09:20:38;;;;;;;5.08;1.00;;;;;;;;;;1856486;77;26235;-50
2022/02/18 09:23:06;;;;;;;1.70;0.90;;;;;;;;;;1844141;76;26292;-48
2022/02/18 09:25:33;;;;;;;6.20;1.57;;;;;;;;;;1856977;77;26308;-46
2022/02/18 09:28:01;;;;;;;0.88;0.80;;;;;;;;;;1856197;77;26335;-48
2022/02/18 09:30:29;;;;;;;1.30;0.75;;;;;;;;;;1854348;76;26346;-55
2022/02/18 09:32:57;;;;;;;0.85;0.80;;;;;;;;;;1847196;76;26301;-51
2022/02/18 09:35:25;;;;;;;0.95;0.72;;;;;;;;;;1847032;77;26746;-45
2022/02/18 09:37:53;;;;;;;1.37;0.70;;;;;;;;;;1839098;76;26332;-52
2022/02/18 09:40:21;;;;;;;5.28;1.02;;;;;;;;;;1828078;76;26266;-53
2022/02/18 09:42:49;;;;;;;0.53;0.50;;;;;;;;;;1843411;77;26282;-55
2022/02/18 09:45:18;;;;;;;0.98;0.80;;;;;;;;;;1847601;76;26324;-52
2022/02/18 09:47:46;;;;;;;1.30;0.80;;;;;;;;;;1847658;77;26255;-50
2022/02/18 09:50:14;;;;;;;2.98;0.70;;;;;;;;;;1848202;77;25728;-47
2022/02/18 09:52:41;;;;;;;0.88;0.70;;;;;;;;;;1847612;77;26258;-50
2022/02/18 09:55:08;;;;;;;2.27;0.80;;;;;;;;;;1843884;77;26303;-56
2022/02/18 09:57:36;;;;;;;1.40;0.70;;;;;;;;;;1848404;77;26266;-49
2022/02/18 10:00:05;;;;;;;0.70;0.68;;;;;;;;;;1848976;77;26748;-49
2022/02/18 10:02:33;;;;;;;0.80;0.80;;;;;;;;;;1848562;77;26768;-49
2022/02/18 10:05:01;;;;;;;0.60;0.60;;;;;;;;;;1848436;77;26294;-45
2022/02/18 10:07:29;;;;;;;0.62;0.50;;;;;;;;;;1835345;77;26263;-57
2022/02/18 10:09:57;;;;;;;0.75;0.70;;;;;;;;;;1841238;77;26274;-55
2022/02/18 10:12:35;;;;;;;0.50;0.50;;;;;;;;;;1848884;77;26279;-57
2022/02/18 10:15:09;;;;;;;0.75;0.60;;;;;;;;;;1837131;77;26947;-54
2022/02/18 10:17:40;;;;;;;0.68;0.68;;;;;;;;;;1847945;77;26384;-61
2022/02/18 10:20:09;;;;;;;0.70;0.70;;;;;;;;;;1848647;77;26774;-54
2022/02/18 10:22:37;;;;;;;1.52;0.70;;;;;;;;;;1837861;76;26317;-59
2022/02/18 10:25:05;;;;;;;0.60;0.60;;;;;;;;;;1848899;77;26808;-52
2022/02/18 10:27:43;;;;;;;0.40;0.40;;;;;;;;;;1846367;77;26269;-55
2022/02/18 10:30:12;;;;;;;2.27;0.60;;;;;;;;;;1826304;76;26658;-61
2022/02/18 10:32:40;;;;;;;0.50;0.50;;;;;;;;;;1856470;77;26721;-49
2022/02/18 10:35:08;;;;;;;0.55;0.50;;;;;;;;;;1864271;76;26730;-49
2022/02/18 10:37:36;;;;;;;0.53;0.53;;;;;;;;;;1844734;77;26270;-56
2022/02/18 10:40:10;;;;;;;1.90;0.70;;;;;;;;;;1863754;77;26194;-55
2022/02/18 10:42:38;;;;;;;2.87;0.45;;;;;;;;;;1864323;75;26740;-53
2022/02/18 10:45:09;;;;;;;1.32;0.40;;;;;;;;;;1863144;75;26316;-48
2022/02/18 10:47:36;;;;;;;0.45;0.45;;;;;;;;;;1856435;77;26247;-46
2022/02/18 10:50:05;;;;;;;0.50;0.50;;;;;;;;;;1864107;75;26179;-54
2022/02/18 10:52:32;;;;;;;0.50;0.50;;;;;;;;;;1863130;75;26235;-57
2022/02/18 10:55:01;;;;;;;1.00;0.70;;;;;;;;;;1864290;75;26273;-56
2022/02/18 10:57:29;;;;;;;0.55;0.40;;;;;;;;;;1863593;76;26254;-47
2022/02/18 10:59:57;;;;;;;1.02;0.20;;;;;;;;;;1854722;77;26335;-51
2022/02/18 11:02:38;;;;;;;0.35;0.35;;;;;;;;;;1845509;77;26614;-55
2022/02/18 11:05:22;;;;;;;0.40;0.40;;;;;;;;;;1847954;77;26312;-63
2022/02/18 11:07:49;;;;;;;1.07;0.40;;;;;;;;;;1864347;77;26756;-53
2022/02/18 11:10:37;;;;;;;0.53;0.53;;;;;;;;;;1867659;75;26838;-49
2022/02/18 11:13:05;;;;;;;1.37;0.35;;;;;;;;;;1870874;75;26257;-49
2022/02/18 11:15:33;;;;;;;0.40;0.40;;;;;;;;;;1864391;77;26231;-55
2022/02/18 11:18:00;;;;;;;0.40;0.40;;;;;;;;;;1857180;77;26210;-53
2022/02/18 11:20:28;;;;;;;0.40;0.40;;;;;;;;;;1864087;77;26306;-55
2022/02/18 11:22:57;;;;;;;1.35;0.50;;;;;;;;;;1852972;76;26749;-59
2022/02/18 11:25:25;;;;;;;0.30;0.30;;;;;;;;;;1864306;76;26375;-54
2022/02/18 11:27:53;;;;;;;0.35;0.35;;;;;;;;;;1864098;77;26250;-56
2022/02/18 11:30:20;;;;;;;0.45;0.45;;;;;;;;;;1863751;76;26315;-49
2022/02/18 11:32:49;;;;;;;0.20;0.20;;;;;;;;;;1834610;76;26360;-47
2022/02/18 11:35:18;;;;;;;0.40;0.40;;;;;;;;;;1822238;77;26709;-52
2022/02/18 11:37:47;;;;;;;0.72;0.40;;;;;;;;;;1830198;77;26270;-53
2022/02/18 11:40:16;;;;;;;0.50;0.37;;;;;;;;;;1818457;77;26361;-53
2022/02/18 11:42:54;;;;;;;0.20;0.20;;;;;;;;;;1831503;77;26759;-54
2022/02/18 11:45:23;;;;;;;0.40;0.40;;;;;;;;;;1829192;77;26799;-52
2022/02/18 11:47:50;;;;;;;0.20;0.20;;;;;;;;;;1827445;78;26318;-49
2022/02/18 11:50:19;;;;;;;1.10;0.72;;;;;;;;;;1844661;77;26262;-53
2022/02/18 11:52:49;;;;;;;0.40;0.40;;;;;;;;;;1824115;77;26272;-51
2022/02/18 11:55:29;;;;;;;1.00;0.42;;;;;;;;;;1821443;77;26348;-51
2022/02/18 11:58:07;;;;;;;0.60;0.40;;;;;;;;;;1824946;77;26271;-54
2022/02/18 12:00:48;;;;;;;0.30;0.30;;;;;;;;;;1827807;77;26348;-49
2022/02/18 12:03:17;;;;;;;1.75;0.60;;;;;;;;;;1834597;77;26336;-50
2022/02/18 12:06:02;;;;;;;1.98;0.50;;;;;;;;;;1829077;77;26353;-53
2022/02/18 12:08:30;;;;;;;1.22;0.53;;;;;;;;;;1808906;78;26349;-59
2022/02/18 12:10:57;;;;;;;1.17;0.45;;;;;;;;;;1826704;77;26267;-57
2022/02/18 12:13:24;;;;;;;1.50;0.65;;;;;;;;;;1826101;77;26350;-49
2022/02/18 12:15:53;;;;;;;0.40;0.40;;;;;;;;;;1822183;76;26374;-52
2022/02/18 12:18:20;;;;;;;0.60;0.53;;;;;;;;;;1835714;77;26276;-50
2022/02/18 12:20:48;;;;;;;1.00;0.60;;;;;;;;;;1830392;77;26723;-51
2022/02/18 12:23:22;;;;;;;2.50;0.60;;;;;;;;;;1844177;77;26678;-51
2022/02/18 12:25:50;;;;;;;0.70;0.53;;;;;;;;;;1838457;77;26219;-62
2022/02/18 12:28:20;;;;;;;0.30;0.30;;;;;;;;;;1841256;77;26675;-63
2022/02/18 12:30:58;;;;;;;0.50;0.50;;;;;;;;;;1826856;77;26354;-54
2022/02/18 12:33:26;;;;;;;1.22;0.37;;;;;;;;;;1849331;76;26360;-48
2022/02/18 12:35:54;;;;;;;0.53;0.40;;;;;;;;;;1848505;76;26320;-49
2022/02/18 12:38:21;;;;;;;0.40;0.40;;;;;;;;;;1845767;77;26824;-50
2022/02/18 12:40:49;;;;;;;0.90;0.40;;;;;;;;;;1843127;77;26316;-55
2022/02/18 12:43:17;;;;;;;0.40;0.40;;;;;;;;;;1845970;77;26344;-52
2022/02/18 12:45:46;;;;;;;0.42;0.30;;;;;;;;;;1847194;77;26361;-52
2022/02/18 12:48:13;;;;;;;0.30;0.30;;;;;;;;;;1848037;77;26682;-51
2022/02/18 12:50:42;;;;;;;1.42;0.20;;;;;;;;;;1847941;77;26302;-49
2022/02/18 12:53:10;;;;;;;0.75;0.42;;;;;;;;;;1847892;77;26247;-51
2022/02/18 12:55:38;;;;;;;0.40;0.33;;;;;;;;;;1843763;77;26308;-50
2022/02/18 12:58:07;;;;;;;0.45;0.45;;;;;;;;;;1834539;77;26355;-51
2022/02/18 13:00:35;;;;;;;0.20;0.20;;;;;;;;;;1848199;77;26282;-48
2022/02/18 13:03:03;;;;;;;0.30;0.30;;;;;;;;;;1843527;77;26313;-52
2022/02/18 13:05:36;;;;;;;0.30;0.30;;;;;;;;;;1847875;77;26320;-53
2022/02/18 13:08:05;;;;;;;0.35;0.30;;;;;;;;;;1832996;76;26788;-50
2022/02/18 13:10:34;;;;;;;0.40;0.40;;;;;;;;;;1843766;77;26258;-51
2022/02/18 13:13:02;;;;;;;0.25;0.25;;;;;;;;;;1848714;77;26384;-53
2022/02/18 13:15:31;;;;;;;1.00;0.30;;;;;;;;;;1849132;77;26344;-52
2022/02/18 13:18:01;;;;;;;0.20;0.20;;;;;;;;;;1847559;77;26247;-50
2022/02/18 13:20:33;;;;;;;0.80;0.33;;;;;;;;;;1840634;77;26809;-50
2022/02/18 13:23:01;;;;;;;0.33;0.33;;;;;;;;;;1849023;76;26246;-49
2022/02/18 13:25:31;;;;;;;0.30;0.30;;;;;;;;;;1842609;77;26737;-50
2022/02/18 13:28:01;;;;;;;0.30;0.30;;;;;;;;;;1848812;77;26718;-50
2022/02/18 13:30:30;;;;;;;0.23;0.23;;;;;;;;;;1848735;77;26224;-48
2022/02/18 13:32:58;;;;;;;0.30;0.30;;;;;;;;;;1849608;77;26750;-53
2022/02/18 13:35:26;;;;;;;0.35;0.20;;;;;;;;;;1846734;77;26253;-49
2022/02/18 13:37:54;;;;;;;0.30;0.20;;;;;;;;;;1863117;76;27271;-53
2022/02/18 13:40:22;;;;;;;0.28;0.25;;;;;;;;;;1864140;77;26344;-50
2022/02/18 13:42:51;;;;;;;0.37;0.37;;;;;;;;;;1863888;77;26234;-49
2022/02/18 13:45:19;;;;;;;0.20;0.20;;;;;;;;;;1863384;76;26740;-47
2022/02/18 13:47:46;;;;;;;0.10;0.10;;;;;;;;;;1863954;77;26371;-47
2022/02/18 13:50:14;;;;;;;0.20;0.20;;;;;;;;;;1861177;76;26363;-50
2022/02/18 13:52:42;;;;;;;0.20;0.20;;;;;;;;;;1843792;77;26278;-48
2022/02/18 13:55:11;;;;;;;0.20;0.13;;;;;;;;;;1863657;76;26282;-50
2022/02/18 13:57:39;;;;;;;0.10;0.10;;;;;;;;;;1848092;77;26298;-50
2022/02/18 14:00:10;;;;;;;0.20;0.20;;;;;;;;;;1863986;77;26274;-49
2022/02/18 14:02:38;;;;;;;0.20;0.20;;;;;;;;;;1863929;76;26349;-52
2022/02/18 14:05:06;;;;;;;0.13;0.13;;;;;;;;;;1861762;76;26265;-49
2022/02/18 14:07:33;;;;;;;0.30;0.30;;;;;;;;;;1862947;77;26725;-48
2022/02/18 14:10:00;;;;;;;0.20;0.20;;;;;;;;;;1867615;75;26807;-50
2022/02/18 14:12:46;;;;;;;0.20;0.20;;;;;;;;;;1865565;75;26321;-51
2022/02/18 14:15:14;;;;;;;0.10;0.10;;;;;;;;;;1863358;76;26259;-50
2022/02/18 14:17:42;;;;;;;0.20;0.20;;;;;;;;;;1854834;76;26313;-48
2022/02/18 14:20:20;;;;;;;0.10;0.10;;;;;;;;;;1863756;77;26738;-49
2022/02/18 14:22:43;;;;;;;0.10;0.10;;;;;;;;;;1862448;75;26342;-53
2022/02/18 14:25:23;;;;;;;0.10;0.10;;;;;;;;;;1859920;77;26708;-51
2022/02/18 14:27:52;;;;;;;0.13;0.10;;;;;;;;;;1860640;77;27475;-50
2022/02/18 14:30:20;;;;;;;0.10;0.10;;;;;;;;;;1863330;77;26882;-48
2022/02/18 14:32:47;;;;;;;0.20;0.20;;;;;;;;;;1858780;77;26310;-52
2022/02/18 14:35:16;;;;;;;0.20;0.20;;;;;;;;;;1848000;77;26348;-49
2022/02/18 14:37:44;;;;;;;0.08;0.08;;;;;;;;;;1847831;77;26791;-48
2022/02/18 14:40:15;;;;;;;0.10;0.10;;;;;;;;;;1847913;77;26270;-51
2022/02/18 14:42:43;;;;;;;0.20;0.20;;;;;;;;;;1846318;77;26271;-46
2022/02/18 14:45:32;;;;;;;0.10;0.10;;;;;;;;;;1846519;77;26757;-54
2022/02/18 14:47:56;;;;;;;0.20;0.20;;;;;;;;;;1842710;77;26332;-55
2022/02/18 14:50:29;;;;;;;0.20;0.20;;;;;;;;;;1848732;77;25737;-52